Time;durP1;ratioP1;P1;durP2;ratioP2;P2;SDS_P1;SDS_P2;PMS_P1;PMS_P2;Temp;Humidity;BMP_temperature;BMP_pressure;BME280_temperature;BME280_humidity;BME280_pressure;Samples;Min_cycle;Max_cycle;Signal;HPM_P1;HPM_P2
2022/03/05 00:04:26;;;;;;;31.83;4.88;;;-0.60;99.90;;;;;;10252075;28;20102;-89
2022/03/05 00:09:28;;;;;;;31.90;7.60;;;-0.60;99.90;;;;;;10270662;28;20055;-89
2022/03/05 00:15:09;;;;;;;29.23;6.50;;;-0.60;99.90;;;;;;10255144;28;20105;-89
2022/03/05 00:20:11;;;;;;;25.58;6.18;;;-0.70;99.90;;;;;;10240950;28;20054;-89
2022/03/05 00:25:13;;;;;;;31.73;7.97;;;-0.70;99.90;;;;;;10242118;28;20406;-89
2022/03/05 00:30:15;;;;;;;26.92;6.75;;;-0.80;99.90;;;;;;10253575;28;20078;-89
2022/03/05 00:35:17;;;;;;;20.95;5.55;;;-0.80;99.90;;;;;;10255392;28;20118;-89
2022/03/05 00:40:36;;;;;;;27.92;6.53;;;-0.90;99.90;;;;;;10266788;28;20058;-90
2022/03/05 00:45:38;;;;;;;24.30;6.05;;;-0.90;99.90;;;;;;10254324;28;20066;-89
2022/03/05 00:50:40;;;;;;;34.78;6.38;;;-0.90;99.90;;;;;;10270368;28;20134;-88
2022/03/05 00:56:28;;;;;;;25.73;7.60;;;-0.90;99.90;;;;;;10296686;28;20433;-89
2022/03/05 01:01:49;;;;;;;30.73;7.45;;;-0.90;99.90;;;;;;10303564;28;20540;-90
2022/03/05 01:06:51;;;;;;;21.08;6.20;;;-0.90;99.90;;;;;;10264012;28;20062;-89
2022/03/05 01:11:53;;;;;;;29.90;6.57;;;-1.00;99.90;;;;;;10299879;28;20062;-89
2022/03/05 01:16:55;;;;;;;27.50;6.63;;;-1.00;99.90;;;;;;10272680;28;20045;-89
2022/03/05 01:21:57;;;;;;;25.40;7.50;;;-1.10;99.90;;;;;;10280528;28;20059;-89
2022/03/05 01:26:59;;;;;;;27.88;6.07;;;-1.20;99.90;;;;;;10283939;28;20049;-89
2022/03/05 01:32:01;;;;;;;31.95;5.68;;;-1.20;99.90;;;;;;10266489;28;20059;-89
2022/03/05 01:37:03;;;;;;;25.25;5.90;;;-1.20;99.90;;;;;;10258862;28;20061;-89
2022/03/05 01:42:05;;;;;;;26.40;6.07;;;-1.30;99.90;;;;;;10268918;28;20046;-89
2022/03/05 01:47:07;;;;;;;35.60;7.32;;;-1.30;99.90;;;;;;10244680;28;1068428;-89
2022/03/05 01:52:09;;;;;;;20.80;5.63;;;-1.40;99.90;;;;;;10267704;28;20055;-90
2022/03/05 01:57:12;;;;;;;28.10;5.05;;;-1.50;99.90;;;;;;10264966;28;20054;-89
2022/03/05 02:02:14;;;;;;;27.52;6.30;;;-1.50;99.90;;;;;;10275779;28;20137;-89
2022/03/05 02:07:17;;;;;;;24.08;6.57;;;-1.50;99.90;;;;;;10251731;28;20133;-89
2022/03/05 02:12:18;;;;;;;24.50;5.68;;;-1.60;99.90;;;;;;10279622;28;20051;-89
2022/03/05 02:17:20;;;;;;;23.20;5.13;;;-1.70;99.90;;;;;;10259250;28;20047;-89
2022/03/05 02:22:23;;;;;;;29.52;6.40;;;-1.70;99.90;;;;;;10280120;28;20054;-89
2022/03/05 02:27:27;;;;;;;23.42;5.85;;;-1.70;99.90;;;;;;10253531;28;20057;-89
2022/03/05 02:32:28;;;;;;;19.52;5.05;;;-1.80;99.90;;;;;;10281733;28;20054;-89
2022/03/05 02:37:30;;;;;;;25.65;5.70;;;-1.80;99.90;;;;;;10277930;28;20070;-89
2022/03/05 02:42:32;;;;;;;26.42;5.75;;;-1.80;99.90;;;;;;10259409;28;20879;-90
2022/03/05 02:47:35;;;;;;;29.30;5.90;;;-1.90;99.90;;;;;;10269984;28;20050;-90
2022/03/05 02:52:40;;;;;;;31.33;6.40;;;-1.90;99.90;;;;;;10285805;28;20066;-90
2022/03/05 02:57:42;;;;;;;28.33;6.47;;;-2.00;99.90;;;;;;10291758;28;20053;-90
2022/03/05 03:02:55;;;;;;;19.17;5.00;;;-2.00;99.90;;;;;;10282058;28;20110;-90
2022/03/05 03:07:57;;;;;;;21.63;5.95;;;-2.00;99.90;;;;;;10285546;28;20064;-90
2022/03/05 03:12:59;;;;;;;24.92;4.93;;;-2.00;99.90;;;;;;10284073;28;20058;-90
2022/03/05 03:18:01;;;;;;;24.60;6.40;;;-2.00;99.90;;;;;;10278772;28;20046;-90
2022/03/05 03:23:04;;;;;;;23.60;7.00;;;-2.00;99.90;;;;;;10270162;28;20057;-89
2022/03/05 03:28:06;;;;;;;18.92;4.80;;;-2.00;99.90;;;;;;10271578;28;20440;-89
2022/03/05 03:33:09;;;;;;;22.50;5.95;;;-2.00;99.90;;;;;;10282199;28;20073;-90
2022/03/05 03:38:10;;;;;;;25.55;4.82;;;-2.00;99.90;;;;;;10276090;28;20054;-89
2022/03/05 03:43:12;;;;;;;20.88;5.18;;;-2.10;99.90;;;;;;10261744;28;20058;-90
2022/03/05 03:48:23;;;;;;;26.90;5.20;;;-2.10;99.90;;;;;;10265211;28;20042;-89
2022/03/05 03:53:24;;;;;;;25.08;5.82;;;-2.20;99.90;;;;;;10272322;28;20054;-90
2022/03/05 03:58:26;;;;;;;20.38;6.07;;;-2.20;99.90;;;;;;10279903;28;20850;-90
2022/03/05 04:03:28;;;;;;;20.65;4.80;;;-2.20;99.90;;;;;;10293066;28;20417;-90
2022/03/05 04:08:42;;;;;;;22.33;4.47;;;-2.20;99.90;;;;;;10298755;28;20057;-89
2022/03/05 04:14:03;;;;;;;19.45;5.15;;;-2.30;99.90;;;;;;10271722;28;20121;-89
2022/03/05 04:19:05;;;;;;;19.00;5.15;;;-2.30;99.90;;;;;;10258854;28;20051;-90
2022/03/05 04:24:07;;;;;;;20.67;5.28;;;-2.40;99.90;;;;;;10262542;28;20065;-90
2022/03/05 04:29:09;;;;;;;23.70;4.63;;;-2.40;99.90;;;;;;10268586;28;20051;-90
2022/03/05 04:34:11;;;;;;;28.45;4.88;;;-2.40;99.90;;;;;;10281842;28;20050;-90
2022/03/05 04:39:13;;;;;;;26.30;5.20;;;-2.40;99.90;;;;;;10290542;28;20066;-90
2022/03/05 04:44:15;;;;;;;24.35;5.82;;;-2.40;99.90;;;;;;10273247;28;20110;-89
2022/03/05 04:49:43;;;;;;;26.73;5.45;;;-2.50;99.90;;;;;;10252693;28;20059;-89
2022/03/05 04:54:44;;;;;;;27.70;5.57;;;-2.50;99.90;;;;;;10244557;28;20138;-90
2022/03/05 04:59:47;;;;;;;19.77;5.03;;;-2.60;99.90;;;;;;10257050;28;21034;-90
2022/03/05 05:04:49;;;;;;;19.85;5.65;;;-2.60;99.90;;;;;;10274359;28;20051;-90
2022/03/05 05:10:03;;;;;;;26.38;5.38;;;-2.60;99.90;;;;;;10253775;28;20647;-90
2022/03/05 05:15:15;;;;;;;23.25;6.35;;;-2.60;99.90;;;;;;10271833;28;20137;-90
2022/03/05 05:20:17;;;;;;;28.73;5.78;;;-2.70;99.90;;;;;;10270715;28;20070;-90
2022/03/05 05:25:19;;;;;;;25.88;5.68;;;-2.70;99.90;;;;;;10250330;28;20412;-90
2022/03/05 05:30:21;;;;;;;25.85;5.28;;;-2.70;99.90;;;;;;10265123;28;20058;-89
2022/03/05 05:35:23;;;;;;;24.92;5.05;;;-2.70;99.90;;;;;;10268004;28;20050;-89
2022/03/05 05:40:24;;;;;;;15.20;4.93;;;-2.80;99.90;;;;;;10248327;28;20053;-89
2022/03/05 05:45:32;;;;;;;22.08;5.53;;;-2.80;99.90;;;;;;10263785;28;20046;-89
2022/03/05 05:50:34;;;;;;;28.55;6.43;;;-2.80;99.90;;;;;;10268222;28;20054;-90
2022/03/05 05:55:36;;;;;;;22.00;6.22;;;-2.80;99.90;;;;;;10239152;28;20110;-90
2022/03/05 06:00:38;;;;;;;25.48;6.10;;;-2.80;99.90;;;;;;10225831;28;20055;-90
2022/03/05 06:05:43;;;;;;;23.60;5.65;;;-2.80;99.90;;;;;;10253582;28;20093;-91
2022/03/05 06:10:45;;;;;;;18.95;4.03;;;-2.80;99.90;;;;;;10233088;28;20055;-90
2022/03/05 06:15:47;;;;;;;31.60;7.13;;;-2.80;99.90;;;;;;10241136;28;20101;-90
2022/03/05 06:20:52;;;;;;;28.67;6.22;;;-2.80;99.90;;;;;;10251477;28;20055;-91
2022/03/05 06:25:54;;;;;;;27.83;7.13;;;-2.80;99.90;;;;;;10253732;28;20042;-90
2022/03/05 06:30:56;;;;;;;33.97;6.43;;;-2.80;99.90;;;;;;10253495;28;20047;-90
2022/03/05 06:35:58;;;;;;;22.15;5.70;;;-2.70;99.90;;;;;;10252450;28;20042;-90
2022/03/05 06:41:00;;;;;;;30.60;7.18;;;-2.70;99.90;;;;;;10243336;28;20105;-90
2022/03/05 06:46:03;;;;;;;30.17;6.68;;;-2.60;99.90;;;;;;10262619;28;20552;-92
2022/03/05 06:51:13;;;;;;;27.45;6.40;;;-2.60;99.90;;;;;;10250015;28;20080;-91
2022/03/05 06:56:15;;;;;;;25.08;6.20;;;-2.50;99.90;;;;;;10260371;28;20532;-91
2022/03/05 07:01:44;;;;;;;27.67;7.25;;;-2.40;99.90;;;;;;10257660;28;20438;-90
2022/03/05 07:06:47;;;;;;;30.50;6.75;;;-2.30;99.90;;;;;;10255944;28;20079;-91
2022/03/05 07:11:49;;;;;;;32.60;6.60;;;-2.20;99.90;;;;;;10272739;28;20050;-91
2022/03/05 07:16:51;;;;;;;34.65;6.63;;;-2.10;99.90;;;;;;10264871;28;20490;-91
2022/03/05 07:21:53;;;;;;;23.00;6.05;;;-2.00;99.90;;;;;;10270995;28;20058;-90
2022/03/05 07:26:54;;;;;;;30.42;7.18;;;-1.90;99.90;;;;;;10255140;28;20070;-90
2022/03/05 07:31:56;;;;;;;28.08;7.28;;;-1.70;99.90;;;;;;10250938;28;20059;-91
2022/03/05 07:36:58;;;;;;;29.95;6.20;;;-1.60;99.90;;;;;;10242527;28;20055;-90
2022/03/05 07:42:00;;;;;;;29.67;7.18;;;-1.50;99.90;;;;;;10250787;28;20130;-91
2022/03/05 07:47:03;;;;;;;28.45;6.78;;;-1.30;99.90;;;;;;10228206;28;20060;-91
2022/03/05 07:52:07;;;;;;;33.67;6.57;;;-1.10;99.90;;;;;;10266152;28;20370;-91
2022/03/05 07:57:12;;;;;;;27.38;7.72;;;-1.00;99.90;;;;;;10281993;28;20082;-90
2022/03/05 08:02:15;;;;;;;28.63;7.38;;;-0.80;99.90;;;;;;10267982;28;20042;-90
2022/03/05 08:07:17;;;;;;;22.05;6.15;;;-0.60;99.90;;;;;;10272493;28;20046;-91
2022/03/05 08:12:19;;;;;;;27.73;7.68;;;-0.40;99.90;;;;;;10269583;28;20050;-90
2022/03/05 08:17:23;;;;;;;28.98;6.57;;;-0.10;99.90;;;;;;10256438;28;20053;-90
2022/03/05 08:22:25;;;;;;;22.67;5.80;;;0.10;99.90;;;;;;10266896;28;20125;-90
2022/03/05 08:27:36;;;;;;;21.20;6.88;;;0.30;99.90;;;;;;10228727;28;20493;-90
2022/03/05 08:32:38;;;;;;;23.75;6.38;;;0.50;99.90;;;;;;10273885;28;20061;-90
2022/03/05 08:37:41;;;;;;;30.25;7.35;;;0.70;99.90;;;;;;10257712;28;20503;-90
2022/03/05 08:42:45;;;;;;;19.58;7.13;;;0.90;99.90;;;;;;10255966;28;20051;-90
2022/03/05 08:47:47;;;;;;;23.10;6.43;;;1.10;99.90;;;;;;10273405;28;20412;-90
2022/03/05 08:52:49;;;;;;;19.35;5.85;;;1.20;99.90;;;;;;10299001;28;20104;-88
2022/03/05 08:57:51;;;;;;;20.02;6.75;;;1.40;99.90;;;;;;10249548;28;20060;-89
2022/03/05 09:03:37;;;;;;;24.92;7.22;;;1.60;99.90;;;;;;10097845;28;20488;-91
2022/03/05 09:09:30;;;;;;;18.00;5.75;;;1.80;98.40;;;;;;10000244;29;20033;-89
2022/03/05 09:14:32;;;;;;;26.27;7.63;;;1.90;95.40;;;;;;10139121;29;20051;-89
2022/03/05 09:19:38;;;;;;;20.33;7.40;;;2.10;94.70;;;;;;10129364;29;20067;-90
2022/03/05 09:24:47;;;;;;;23.70;7.07;;;2.20;94.10;;;;;;10126034;29;20056;-90
2022/03/05 09:29:51;;;;;;;17.95;6.60;;;2.40;92.20;;;;;;10098914;29;20060;-90
2022/03/05 09:34:53;;;;;;;22.67;6.22;;;2.50;92.60;;;;;;10115360;29;20062;-90
2022/03/05 09:40:00;;;;;;;23.48;6.90;;;2.70;91.70;;;;;;10145870;29;20048;-90
2022/03/05 09:45:03;;;;;;;20.75;7.35;;;2.80;90.60;;;;;;10119093;28;20063;-90
2022/03/05 09:50:07;;;;;;;21.50;7.28;;;2.90;89.20;;;;;;10144514;29;20107;-90
2022/03/05 09:55:12;;;;;;;21.63;7.18;;;3.00;89.30;;;;;;10148757;29;20043;-90
2022/03/05 10:00:14;;;;;;;15.27;6.22;;;3.00;87.40;;;;;;10145081;28;20126;-91
2022/03/05 10:05:32;;;;;;;20.02;7.00;;;3.20;87.70;;;;;;10165409;29;20103;-90
2022/03/05 10:10:49;;;;;;;17.35;6.80;;;3.20;86.70;;;;;;10161013;28;20551;-90
2022/03/05 10:15:56;;;;;;;17.40;6.28;;;3.20;86.00;;;;;;10205659;28;20055;-91
2022/03/05 10:21:29;;;;;;;21.80;6.47;;;3.60;90.50;;;;;;10119746;28;20329;-90
2022/03/05 10:26:53;;;;;;;17.65;6.32;;;3.70;85.50;;;;;;10251641;28;20058;-90
2022/03/05 10:32:03;;;;;;;20.55;8.07;;;3.80;85.20;;;;;;10265290;28;20055;-90
2022/03/05 10:37:05;;;;;;;20.55;6.68;;;4.00;84.30;;;;;;10252061;28;20050;-90
2022/03/05 10:42:26;;;;;;;20.17;6.95;;;4.10;83.00;;;;;;10264420;28;20489;-91
2022/03/05 10:48:32;;;;;;;20.90;7.13;;;4.30;81.30;;;;;;10266849;28;20496;-94
2022/03/05 10:53:48;;;;;;;21.83;7.13;;;4.40;81.30;;;;;;10260145;28;20063;-91
2022/03/05 10:59:22;;;;;;;18.80;6.32;;;4.60;80.20;;;;;;10266257;28;20454;-90
2022/03/05 11:04:29;;;;;;;17.92;6.13;;;4.70;79.20;;;;;;10234470;28;20130;-91
2022/03/05 11:09:44;;;;;;;24.27;7.18;;;4.90;78.40;;;;;;10228769;28;20058;-90
2022/03/05 11:14:47;;;;;;;14.50;6.10;;;5.00;76.50;;;;;;10267044;28;20446;-90
2022/03/05 11:19:50;;;;;;;22.05;7.95;;;5.10;76.80;;;;;;10246309;28;20042;-90
2022/03/05 11:24:53;;;;;;;21.70;7.00;;;5.20;74.60;;;;;;10261493;28;20050;-89
2022/03/05 11:29:59;;;;;;;20.52;7.18;;;5.30;74.50;;;;;;10274100;28;20113;-90
2022/03/05 11:35:16;;;;;;;16.58;7.47;;;5.50;74.30;;;;;;10238745;28;20114;-90
2022/03/05 11:40:36;;;;;;;17.70;8.43;;;5.60;73.10;;;;;;10239018;28;20047;-90
2022/03/05 11:45:38;;;;;;;20.60;7.10;;;5.70;72.10;;;;;;10269412;28;20108;-90
2022/03/05 11:50:49;;;;;;;20.27;7.95;;;5.80;72.80;;;;;;10268760;28;20046;-90
2022/03/05 11:55:51;;;;;;;18.27;8.10;;;6.30;70.90;;;;;;10250445;28;20058;-90
2022/03/05 12:00:57;;;;;;;21.25;9.15;;;7.20;66.60;;;;;;10244055;28;20047;-90
2022/03/05 12:06:01;;;;;;;16.48;6.55;;;8.30;62.70;;;;;;10258876;28;20039;-90
2022/03/05 12:11:20;;;;;;;18.23;7.53;;;8.60;59.50;;;;;;10255025;28;20452;-90
2022/03/05 12:16:27;;;;;;;13.43;5.93;;;9.10;59.40;;;;;;10250771;28;20046;-90
2022/03/05 12:21:31;;;;;;;14.35;6.28;;;8.90;58.20;;;;;;10240376;28;20069;-90
2022/03/05 12:26:35;;;;;;;11.80;6.13;;;9.40;57.10;;;;;;10272006;28;20058;-90
2022/03/05 12:31:44;;;;;;;17.95;7.00;;;9.10;55.10;;;;;;10272783;28;20050;-90
2022/03/05 12:36:47;;;;;;;10.70;6.15;;;9.10;57.50;;;;;;10264116;28;20051;-90
2022/03/05 12:41:49;;;;;;;10.63;4.90;;;8.80;55.20;;;;;;10244304;28;20105;-89
2022/03/05 12:46:51;;;;;;;11.60;5.95;;;9.50;54.20;;;;;;10259285;28;20047;-90
2022/03/05 12:51:53;;;;;;;14.48;5.80;;;10.90;52.90;;;;;;10287101;28;20047;-90
2022/03/05 12:56:57;;;;;;;11.70;5.03;;;12.80;46.90;;;;;;10293980;28;20042;-90
2022/03/05 13:02:05;;;;;;;12.40;5.30;;;12.90;43.20;;;;;;10280036;28;20038;-91
2022/03/05 13:07:08;;;;;;;9.18;4.88;;;14.00;42.60;;;;;;10283718;28;20759;-91
2022/03/05 13:12:11;;;;;;;10.02;4.93;;;13.70;42.40;;;;;;10215677;28;20053;-90
2022/03/05 13:17:17;;;;;;;6.97;3.72;;;13.50;42.50;;;;;;10236966;28;20046;-94
2022/03/05 13:22:51;;;;;;;9.00;4.95;;;13.30;42.90;;;;;;10033312;28;20055;-88
2022/03/05 13:34:44;;;;;;;10.68;4.47;;;13.40;41.70;;;;;;10256743;28;20042;-88
2022/03/05 13:39:47;;;;;;;10.25;4.53;;;12.90;42.20;;;;;;10261987;28;20509;-88
2022/03/05 13:44:52;;;;;;;9.52;4.93;;;12.70;42.80;;;;;;10267176;28;20092;-88
2022/03/05 13:50:24;;;;;;;12.35;4.97;;;14.00;40.20;;;;;;10222661;28;20051;-88
2022/03/05 13:55:27;;;;;;;7.85;4.22;;;13.90;39.50;;;;;;10274010;28;20054;-89
2022/03/05 14:00:41;;;;;;;8.68;3.60;;;13.90;39.60;;;;;;10260305;28;20050;-88
2022/03/05 14:05:43;;;;;;;10.23;3.72;;;13.40;40.30;;;;;;10261104;28;20117;-89
2022/03/05 14:10:47;;;;;;;9.85;4.07;;;12.70;40.90;;;;;;10249287;28;20066;-88
2022/03/05 14:15:49;;;;;;;11.55;5.10;;;12.20;42.00;;;;;;10271405;28;20046;-87
2022/03/05 14:20:52;;;;;;;6.93;3.55;;;11.80;42.50;;;;;;10264372;28;20216;-86
2022/03/05 14:25:54;;;;;;;10.13;3.97;;;10.60;42.50;;;;;;10240693;28;20051;-88
2022/03/05 14:30:59;;;;;;;7.85;3.30;;;10.90;44.70;;;;;;10247112;28;20047;-87
2022/03/05 14:36:01;;;;;;;7.50;3.42;;;11.70;45.90;;;;;;10243758;28;20059;-87
2022/03/05 14:41:05;;;;;;;7.05;3.30;;;12.30;62.00;;;;;;10233285;28;20050;-88
2022/03/05 14:46:14;;;;;;;9.20;3.97;;;13.30;40.70;;;;;;10191137;28;20042;-87
2022/03/05 14:51:21;;;;;;;8.43;4.22;;;14.20;39.20;;;;;;10212903;28;20055;-90
2022/03/05 14:56:32;;;;;;;5.95;3.13;;;14.40;37.80;;;;;;10206357;28;20052;-88
2022/03/05 15:01:37;;;;;;;7.05;2.92;;;14.30;38.00;;;;;;10243073;28;20065;-88
2022/03/05 15:06:41;;;;;;;5.97;3.05;;;14.00;38.10;;;;;;10236156;28;20046;-89
2022/03/05 15:11:43;;;;;;;7.53;3.00;;;13.40;39.10;;;;;;10222100;28;20046;-87
2022/03/05 15:16:47;;;;;;;6.45;3.13;;;12.60;40.60;;;;;;10234803;28;20050;-88
2022/03/05 15:22:06;;;;;;;8.63;3.25;;;11.80;40.20;;;;;;10244590;28;20053;-88
2022/03/05 15:27:08;;;;;;;6.07;3.03;;;11.50;42.70;;;;;;10220709;28;20050;-89
2022/03/05 15:32:10;;;;;;;8.65;3.13;;;10.80;43.20;;;;;;10253829;28;20046;-88
2022/03/05 15:37:12;;;;;;;8.70;3.53;;;10.40;44.60;;;;;;10260239;28;20039;-89
2022/03/05 15:42:14;;;;;;;11.25;3.30;;;10.10;45.00;;;;;;10248019;28;20043;-88
2022/03/05 15:47:16;;;;;;;9.68;3.63;;;10.20;46.50;;;;;;10249494;28;20106;-88
2022/03/05 15:52:18;;;;;;;6.68;2.80;;;10.00;46.40;;;;;;10288546;28;20082;-88
2022/03/05 15:57:22;;;;;;;5.93;3.08;;;9.70;46.60;;;;;;10291729;28;20056;-89
2022/03/05 16:02:23;;;;;;;5.75;2.72;;;9.50;46.60;;;;;;10287621;28;20456;-88
2022/03/05 16:07:26;;;;;;;7.15;2.75;;;9.40;47.00;;;;;;10278716;28;20500;-88
2022/03/05 16:12:28;;;;;;;9.13;3.17;;;9.40;46.50;;;;;;10285422;28;20126;-88
2022/03/05 16:17:30;;;;;;;10.10;3.97;;;9.20;47.60;;;;;;10265907;28;20045;-87
2022/03/05 16:22:33;;;;;;;7.45;2.63;;;9.00;48.40;;;;;;10254570;28;20059;-87
2022/03/05 16:27:35;;;;;;;6.72;2.85;;;8.70;50.10;;;;;;10286442;28;20066;-87
2022/03/05 16:32:41;;;;;;;7.50;3.30;;;8.60;50.40;;;;;;10239524;28;20059;-86
2022/03/05 16:37:44;;;;;;;5.75;2.80;;;8.40;52.10;;;;;;10262637;28;20137;-87
2022/03/05 16:42:54;;;;;;;8.45;3.08;;;8.10;52.90;;;;;;10239841;28;20053;-87
2022/03/05 16:48:08;;;;;;;9.70;3.25;;;7.80;52.60;;;;;;10247580;28;20051;-88
2022/03/05 16:53:12;;;;;;;5.90;2.83;;;7.50;53.70;;;;;;10144351;28;20054;-87
2022/03/05 16:58:14;;;;;;;7.47;2.75;;;7.30;53.30;;;;;;10231997;28;20493;-87
2022/03/05 17:03:16;;;;;;;6.85;3.22;;;7.10;55.30;;;;;;10127122;28;20110;-87
2022/03/05 17:08:18;;;;;;;8.73;3.45;;;6.80;56.50;;;;;;10203625;28;20409;-87
2022/03/05 17:13:26;;;;;;;6.93;3.50;;;6.60;56.80;;;;;;10238773;28;20052;-87
2022/03/05 17:18:49;;;;;;;8.02;3.35;;;6.40;57.40;;;;;;10252034;28;20054;-87
2022/03/05 17:23:53;;;;;;;9.55;2.90;;;6.20;58.30;;;;;;10264542;28;20102;-87
2022/03/05 17:28:55;;;;;;;6.32;3.33;;;6.10;58.80;;;;;;10251903;28;20059;-88
2022/03/05 17:34:08;;;;;;;8.93;3.42;;;5.90;62.90;;;;;;10223610;28;20062;-89
2022/03/05 17:39:17;;;;;;;10.65;3.92;;;5.80;60.30;;;;;;10199204;28;20054;-88
2022/03/05 17:44:22;;;;;;;8.60;3.13;;;5.60;60.70;;;;;;10269388;28;20051;-87
2022/03/05 17:49:25;;;;;;;10.27;3.60;;;5.50;61.20;;;;;;10225399;28;20065;-86
2022/03/05 17:54:27;;;;;;;9.05;3.97;;;5.40;61.50;;;;;;10264095;28;20059;-86
2022/03/05 17:59:29;;;;;;;6.28;2.92;;;5.30;61.30;;;;;;10240154;28;20050;-87
2022/03/05 18:04:31;;;;;;;12.18;7.72;;;5.10;61.60;;;;;;9715925;28;20239;-87
2022/03/05 18:09:33;;;;;;;10.48;3.60;;;5.00;61.50;;;;;;9891261;28;20047;-87
2022/03/05 18:14:40;;;;;;;9.02;3.50;;;4.90;61.30;;;;;;10237311;28;20437;-87
2022/03/05 18:19:42;;;;;;;8.70;3.45;;;4.90;60.50;;;;;;10274612;28;20129;-87
2022/03/05 18:24:44;;;;;;;8.98;3.47;;;4.90;60.70;;;;;;10259597;28;20053;-88
2022/03/05 18:29:46;;;;;;;9.35;4.03;;;4.80;61.20;;;;;;10239687;28;20051;-87
2022/03/05 18:34:49;;;;;;;10.07;3.95;;;4.80;61.60;;;;;;10246307;28;20093;-87
2022/03/05 18:39:51;;;;;;;9.82;3.58;;;4.80;61.80;;;;;;10253470;28;20074;-87
2022/03/05 18:44:54;;;;;;;9.23;3.90;;;4.70;62.80;;;;;;10245476;28;20051;-87
2022/03/05 18:49:56;;;;;;;7.40;3.60;;;4.60;62.70;;;;;;10250411;28;20057;-87
2022/03/05 18:55:31;;;;;;;8.50;3.53;;;4.60;62.20;;;;;;10257562;28;20057;-86
2022/03/05 19:00:33;;;;;;;8.80;2.85;;;4.60;61.40;;;;;;10267284;28;20129;-87
2022/03/05 19:05:40;;;;;;;7.72;3.35;;;4.60;61.40;;;;;;10245498;28;20058;-87
2022/03/05 19:10:43;;;;;;;6.28;3.22;;;4.60;62.60;;;;;;10243048;28;20061;-87
2022/03/05 19:15:45;;;;;;;9.27;3.70;;;4.60;62.80;;;;;;10231797;28;20051;-87
2022/03/05 19:20:47;;;;;;;10.40;3.55;;;4.50;63.30;;;;;;10246110;28;20082;-86
2022/03/05 19:25:50;;;;;;;9.48;3.40;;;4.50;62.90;;;;;;10262942;28;20059;-86
2022/03/05 19:30:52;;;;;;;6.78;2.25;;;4.50;62.80;;;;;;10254723;28;20054;-87
2022/03/05 19:35:54;;;;;;;7.45;3.20;;;4.40;62.80;;;;;;10241346;28;20059;-86
2022/03/05 19:40:55;;;;;;;6.00;2.25;;;4.40;62.20;;;;;;10266341;28;20129;-85
2022/03/05 19:45:57;;;;;;;7.72;2.70;;;4.30;61.60;;;;;;10263334;28;20047;-85
2022/03/05 19:50:59;;;;;;;7.88;2.85;;;4.20;61.70;;;;;;10245032;28;20057;-85
2022/03/05 19:56:01;;;;;;;9.88;2.42;;;4.10;62.30;;;;;;10247018;28;20057;-85
2022/03/05 20:01:03;;;;;;;5.57;2.92;;;4.00;60.30;;;;;;10229513;28;20102;-85
2022/03/05 20:06:06;;;;;;;5.43;2.35;;;4.00;61.50;;;;;;10231961;28;20043;-85
2022/03/05 20:11:07;;;;;;;12.85;2.65;;;3.90;62.40;;;;;;10241122;28;22192;-85
2022/03/05 20:16:09;;;;;;;6.60;2.35;;;3.80;62.30;;;;;;10248589;28;20058;-86
2022/03/05 20:21:11;;;;;;;8.65;2.70;;;3.70;62.00;;;;;;10265657;28;20054;-85
2022/03/05 20:26:13;;;;;;;7.65;2.78;;;3.60;62.10;;;;;;10222669;28;20051;-85
2022/03/05 20:31:15;;;;;;;7.15;3.20;;;3.50;63.20;;;;;;10220063;28;20058;-85
2022/03/05 20:36:20;;;;;;;9.35;3.58;;;3.40;65.10;;;;;;10255098;28;20525;-85
2022/03/05 20:41:23;;;;;;;9.13;3.25;;;3.40;65.50;;;;;;10244994;28;20409;-85
2022/03/05 20:46:25;;;;;;;11.98;3.17;;;3.30;65.60;;;;;;10251041;28;20051;-86
2022/03/05 20:51:27;;;;;;;9.98;4.07;;;3.30;64.70;;;;;;10243628;28;20082;-85
2022/03/05 20:56:29;;;;;;;10.05;3.10;;;3.30;64.60;;;;;;10262246;28;20051;-85
2022/03/05 21:01:32;;;;;;;9.82;4.05;;;3.20;64.40;;;;;;10264842;28;20038;-85
2022/03/05 21:06:34;;;;;;;9.05;3.63;;;3.20;65.30;;;;;;10273472;28;20055;-85
2022/03/05 21:11:36;;;;;;;11.30;4.38;;;3.20;67.20;;;;;;10231712;28;20066;-85
2022/03/05 21:16:38;;;;;;;10.20;3.47;;;3.10;67.20;;;;;;10226936;28;20062;-87
2022/03/05 21:21:40;;;;;;;11.68;4.30;;;3.20;65.20;;;;;;10253463;28;20070;-86
2022/03/05 21:26:42;;;;;;;12.38;4.28;;;3.20;65.90;;;;;;10266660;28;20055;-86
2022/03/05 21:31:44;;;;;;;11.07;3.67;;;3.20;66.40;;;;;;10247205;28;20557;-85
2022/03/05 21:36:46;;;;;;;7.57;3.63;;;3.20;65.60;;;;;;10257517;28;20154;-85
2022/03/05 21:41:50;;;;;;;12.95;3.88;;;3.20;65.80;;;;;;10258459;28;20049;-86
2022/03/05 21:46:52;;;;;;;9.13;3.53;;;3.20;65.90;;;;;;10236888;28;20055;-86
2022/03/05 21:52:01;;;;;;;5.88;2.90;;;3.20;66.40;;;;;;10214912;28;20063;-86
2022/03/05 21:57:06;;;;;;;10.48;3.42;;;3.20;67.90;;;;;;10232289;28;20047;-88
2022/03/05 22:02:12;;;;;;;12.23;3.92;;;3.20;69.10;;;;;;10169667;28;20059;-87
2022/03/05 22:07:19;;;;;;;10.65;3.35;;;3.10;68.90;;;;;;10159408;28;20065;-88
2022/03/05 22:12:22;;;;;;;7.68;3.40;;;3.10;68.50;;;;;;10213126;28;20508;-88
2022/03/05 22:17:29;;;;;;;12.20;3.45;;;3.10;69.50;;;;;;10227085;28;20134;-87
2022/03/05 22:22:35;;;;;;;6.45;2.70;;;3.10;69.70;;;;;;10264351;28;20077;-88
2022/03/05 22:27:37;;;;;;;10.80;3.85;;;3.00;69.50;;;;;;10248603;28;20517;-88
2022/03/05 22:32:39;;;;;;;12.77;4.20;;;2.90;70.40;;;;;;10242916;28;20074;-88
2022/03/05 22:37:41;;;;;;;12.85;4.43;;;2.80;71.60;;;;;;10258445;28;20047;-86
2022/03/05 22:42:43;;;;;;;15.02;5.40;;;2.70;72.90;;;;;;10248838;28;20051;-87
2022/03/05 22:48:11;;;;;;;10.13;3.88;;;2.60;72.70;;;;;;10250039;28;20151;-88
2022/03/05 22:53:13;;;;;;;10.23;3.63;;;2.50;73.60;;;;;;10258713;28;20154;-85
2022/03/05 22:58:15;;;;;;;9.18;3.90;;;2.40;74.00;;;;;;10260090;28;20053;-86
2022/03/05 23:13:58;;;;;;;9.82;3.33;;;2.10;75.20;;;;;;10262427;28;20054;-87
2022/03/05 23:19:01;;;;;;;11.13;4.38;;;2.10;74.90;;;;;;10263601;28;20138;-86
2022/03/05 23:24:03;;;;;;;9.20;4.20;;;2.10;76.10;;;;;;10253052;28;20062;-87
2022/03/05 23:29:05;;;;;;;8.35;4.20;;;2.00;76.70;;;;;;10232624;28;20475;-86
2022/03/05 23:34:08;;;;;;;10.70;4.10;;;1.90;77.90;;;;;;10256551;28;20050;-87
2022/03/05 23:39:10;;;;;;;12.85;4.90;;;1.80;78.70;;;;;;10244189;28;20043;-86
2022/03/05 23:44:11;;;;;;;12.20;4.25;;;1.70;79.80;;;;;;10249369;28;20059;-86
2022/03/05 23:49:13;;;;;;;8.48;4.53;;;1.50;80.90;;;;;;10239213;28;20114;-86
2022/03/05 23:54:18;;;;;;;14.68;5.57;;;1.40;81.50;;;;;;10224326;28;20133;-86
2022/03/05 23:59:20;;;;;;;12.35;4.65;;;1.30;82.70;;;;;;10263455;28;20050;-86
